Terminal Aerodrome Forecast
Issued by NWS Memphis, TN

Home | Current Version | Previous Version | Text Only | Print | Product List | Glossary On
Versions: 1 2 3 4 5 6 7 8 9 10 11 12 13 14 15 16 17 18 19
000
FTUS44 KMEG 201130
TAFJBR
TAF
KJBR 201130Z 2012/2112 12004KT P6SM BKN250
     FM201500 16010KT P6SM BKN250
     FM201800 18012KT P6SM BKN250
     FM210000 17006KT P6SM VCSH BKN050 BKN150
     FM210300 22005KT P6SM VCSH OVC040
     FM210700 30005KT 4SM -SHRA BKN015 OVC025
      TEMPO 2107/2111 2SM SHRA OVC004=

USA.gov is the U.S. government's official web portal to all federal, state and local government web resources and services.